createdAt,value
2018-09-25T00:00:05.297Z,5.48
2018-09-25T00:03:15.952Z,5.50
2018-09-25T00:06:26.613Z,5.46
2018-09-25T00:09:37.309Z,5.44
2018-09-25T00:12:47.905Z,5.44
2018-09-25T00:15:58.643Z,5.38
2018-09-25T00:19:09.319Z,5.39
2018-09-25T00:22:19.909Z,5.40
2018-09-25T00:25:30.489Z,5.43
2018-09-25T00:28:41.102Z,5.40
2018-09-25T00:31:51.770Z,5.39
2018-09-25T00:35:02.621Z,5.31
2018-09-25T00:38:13.382Z,5.22
2018-09-25T00:41:24.094Z,5.26
2018-09-25T00:44:34.902Z,5.23
2018-09-25T00:47:45.703Z,5.20
2018-09-25T00:50:56.401Z,5.18
2018-09-25T00:54:07.188Z,5.18
2018-09-25T00:57:17.837Z,5.15
2018-09-25T01:00:28.534Z,5.10
2018-09-25T01:03:39.370Z,5.10
2018-09-25T01:06:50.088Z,5.11
2018-09-25T01:10:00.721Z,5.09
2018-09-25T01:13:11.551Z,5.06
2018-09-25T01:16:22.260Z,5.02
2018-09-25T01:19:33.001Z,5.00
2018-09-25T01:22:43.627Z,4.96
2018-09-25T01:25:54.326Z,4.93
2018-09-25T01:29:05.002Z,4.91
2018-09-25T01:32:15.628Z,4.88
2018-09-25T01:35:26.257Z,4.89
2018-09-25T01:38:36.958Z,4.87
2018-09-25T01:41:47.607Z,4.77
2018-09-25T01:44:58.409Z,4.72
2018-09-25T01:48:09.062Z,4.73
2018-09-25T01:51:19.886Z,4.69
2018-09-25T01:54:30.671Z,4.58
2018-09-25T01:57:41.267Z,4.61
2018-09-25T02:00:52.021Z,4.57
2018-09-25T02:04:02.705Z,4.56
2018-09-25T02:07:13.384Z,4.52
2018-09-25T02:10:24.053Z,4.51
2018-09-25T02:13:34.649Z,4.50
2018-09-25T02:16:45.337Z,4.50
2018-09-25T02:19:56.049Z,4.47
2018-09-25T02:23:06.737Z,4.36
2018-09-25T02:26:17.465Z,4.36
2018-09-25T02:29:28.120Z,4.38
2018-09-25T02:32:38.979Z,4.37
2018-09-25T02:35:49.623Z,4.35
2018-09-25T02:39:00.386Z,4.29
2018-09-25T02:42:11.101Z,4.21
2018-09-25T02:45:21.739Z,4.28
2018-09-25T02:48:32.495Z,4.29
2018-09-25T02:51:43.251Z,4.30
2018-09-25T02:54:53.961Z,4.32
2018-09-25T02:58:04.602Z,4.30
2018-09-25T03:01:15.296Z,4.24
2018-09-25T03:04:26.029Z,4.17
2018-09-25T03:07:37.128Z,4.18
2018-09-25T03:10:47.898Z,4.18
2018-09-25T03:13:58.478Z,4.17
2018-09-25T03:17:09.226Z,4.09
2018-09-25T03:20:20.025Z,4.05
2018-09-25T03:23:30.746Z,4.07
2018-09-25T03:26:41.338Z,4.05
2018-09-25T03:29:52.013Z,4.07
2018-09-25T03:33:02.698Z,4.05
2018-09-25T03:36:13.559Z,4.03
2018-09-25T03:39:24.195Z,4.00
2018-09-25T03:42:34.897Z,3.97
2018-09-25T03:45:45.805Z,3.97
2018-09-25T03:48:56.519Z,3.91
2018-09-25T03:52:07.487Z,3.88
2018-09-25T03:55:18.044Z,3.85
2018-09-25T03:58:29.774Z,3.84
2018-09-25T04:01:40.374Z,3.83
2018-09-25T04:04:51.042Z,3.81
2018-09-25T04:08:01.759Z,3.82
2018-09-25T04:11:12.587Z,3.80
2018-09-25T04:14:23.445Z,3.78
2018-09-25T04:17:34.074Z,3.70
2018-09-25T04:20:44.966Z,3.63
2018-09-25T04:23:55.730Z,3.58
2018-09-25T04:27:06.481Z,3.66
2018-09-25T04:30:17.105Z,3.63
2018-09-25T04:33:27.944Z,3.63
2018-09-25T04:36:39.933Z,3.67
2018-09-25T04:39:50.770Z,3.68
2018-09-25T04:43:02.748Z,3.68
2018-09-25T04:46:14.750Z,3.69
2018-09-25T04:49:25.598Z,3.63
2018-09-25T04:52:36.343Z,3.63
2018-09-25T04:55:47.051Z,3.49
2018-09-25T04:58:57.746Z,3.48
2018-09-25T05:02:10.459Z,3.43
2018-09-25T05:05:21.421Z,3.37
2018-09-25T05:08:33.586Z,3.39
2018-09-25T05:15:03.098Z,3.20
2018-09-25T05:18:14.840Z,3.23
2018-09-25T05:21:25.570Z,3.29
2018-09-25T05:24:36.899Z,3.34
2018-09-25T05:27:47.623Z,3.34
2018-09-25T05:30:58.237Z,3.35
2018-09-25T05:34:08.964Z,3.37
2018-09-25T05:37:19.637Z,3.40
2018-09-25T05:40:30.357Z,3.42
2018-09-25T05:43:43.521Z,3.45
2018-09-25T05:46:54.561Z,3.40
2018-09-25T05:50:05.198Z,3.39
2018-09-25T05:53:15.942Z,3.41
2018-09-25T05:56:26.569Z,3.43
2018-09-25T05:59:37.437Z,3.51
2018-09-25T06:02:48.149Z,3.56
2018-09-25T06:05:59.853Z,3.62
2018-09-25T06:09:12.968Z,3.67
2018-09-25T06:12:24.736Z,3.69
2018-09-25T06:15:35.716Z,3.71
2018-09-25T06:18:47.647Z,3.67
2018-09-25T06:21:58.372Z,3.74
2018-09-25T06:25:10.889Z,3.78
2018-09-25T06:28:21.583Z,3.83
2018-09-25T06:31:32.356Z,3.91
2018-09-25T06:34:44.352Z,4.03
2018-09-25T06:37:55.578Z,4.12
2018-09-25T06:41:07.466Z,4.24
2018-09-25T06:44:18.425Z,4.37
2018-09-25T06:47:29.228Z,4.48
2018-09-25T06:50:41.274Z,4.65
2018-09-25T06:53:51.969Z,5.04
2018-09-25T06:57:03.625Z,5.23
2018-09-25T07:00:15.859Z,5.38
2018-09-25T07:03:26.915Z,5.61
2018-09-25T07:06:38.065Z,5.95
2018-09-25T07:09:50.093Z,6.48
2018-09-25T07:13:00.622Z,7.21
2018-09-25T07:16:11.618Z,7.31
2018-09-25T07:19:22.595Z,7.24
2018-09-25T07:22:34.540Z,7.49
2018-09-25T07:25:45.480Z,7.91
2018-09-25T07:28:56.262Z,8.09
2018-09-25T07:32:07.845Z,7.88
2018-09-25T07:35:18.649Z,8.02
2018-09-25T07:38:30.218Z,8.17
2018-09-25T07:41:42.287Z,8.31
2018-09-25T07:44:53.830Z,8.47
2018-09-25T07:48:06.099Z,8.71
2018-09-25T07:51:17.660Z,8.96
2018-09-25T07:54:29.755Z,9.28
2018-09-25T07:57:41.338Z,9.67
2018-09-25T08:00:52.303Z,10.22
2018-09-25T08:04:03.351Z,10.20
2018-09-25T08:07:13.982Z,10.27
2018-09-25T08:10:24.704Z,10.35
2018-09-25T08:13:35.391Z,10.55
2018-09-25T08:16:46.140Z,10.88
2018-09-25T08:19:56.935Z,11.08
2018-09-25T08:23:07.826Z,11.32
2018-09-25T08:26:19.566Z,11.34
2018-09-25T08:29:30.988Z,11.77
2018-09-25T08:32:43.142Z,12.09
2018-09-25T08:35:54.235Z,12.03
2018-09-25T08:39:04.913Z,11.86
2018-09-25T08:42:15.806Z,11.96
2018-09-25T08:45:27.515Z,11.96
2018-09-25T08:48:38.381Z,12.06
2018-09-25T08:51:50.368Z,12.31
2018-09-25T08:55:03.167Z,12.39
2018-09-25T08:58:14.886Z,12.50
2018-09-25T09:01:27.864Z,12.74
2018-09-25T09:04:38.877Z,12.79
2018-09-25T09:07:49.671Z,12.97
2018-09-25T09:11:00.451Z,13.17
2018-09-25T09:14:12.099Z,13.15
2018-09-25T09:17:24.041Z,13.33
2018-09-25T09:20:35.565Z,13.43
2018-09-25T09:23:49.306Z,13.51
2018-09-25T09:27:00.096Z,13.66
2018-09-25T09:30:11.655Z,13.62
2018-09-25T09:33:22.534Z,13.86
2018-09-25T09:36:33.451Z,14.14
2018-09-25T09:39:46.314Z,13.78
2018-09-25T09:42:57.199Z,14.15
2018-09-25T09:46:08.969Z,14.12
2018-09-25T09:49:21.597Z,14.06
2018-09-25T09:52:39.249Z,14.20
2018-09-25T09:55:52.201Z,14.29
2018-09-25T09:59:03.172Z,14.41
2018-09-25T10:02:15.949Z,14.44
2018-09-25T10:05:27.717Z,14.40
2018-09-25T10:08:38.586Z,14.62
2018-09-25T10:11:49.725Z,14.75
2018-09-25T10:15:02.113Z,14.77
2018-09-25T10:18:12.919Z,14.73
2018-09-25T10:21:23.640Z,14.57
2018-09-25T10:24:35.136Z,14.65
2018-09-25T10:27:45.930Z,14.68
2018-09-25T10:30:57.369Z,14.60
2018-09-25T10:34:09.411Z,14.71
2018-09-25T10:37:20.122Z,14.84
2018-09-25T10:40:30.677Z,15.00
2018-09-25T10:43:41.285Z,15.24
2018-09-25T10:46:52.728Z,15.32
2018-09-25T10:50:03.448Z,15.35
2018-09-25T10:53:14.147Z,15.34
2018-09-25T10:56:25.618Z,15.41
2018-09-25T10:59:36.202Z,15.66
2018-09-25T11:02:47.094Z,15.95
2018-09-25T11:05:57.640Z,15.29
2018-09-25T11:09:08.593Z,14.84
2018-09-25T11:12:19.465Z,14.80
2018-09-25T11:15:30.398Z,15.02
2018-09-25T11:18:41.166Z,15.32
2018-09-25T11:21:52.058Z,15.87
2018-09-25T11:25:02.696Z,15.87
2018-09-25T11:28:14.683Z,15.92
2018-09-25T11:31:25.418Z,16.12
2018-09-25T11:34:36.144Z,16.41
2018-09-25T11:37:46.973Z,16.70
2018-09-25T11:40:58.828Z,17.00
2018-09-25T11:44:10.592Z,17.01
2018-09-25T11:47:23.032Z,17.28
2018-09-25T11:50:33.948Z,17.07
2018-09-25T11:53:44.861Z,17.00
2018-09-25T11:56:56.226Z,16.41
2018-09-25T12:00:07.874Z,16.25
2018-09-25T12:03:19.613Z,16.19
2018-09-25T12:06:30.376Z,16.47
2018-09-25T12:09:42.258Z,16.79
2018-09-25T12:15:13.192Z,17.30
2018-09-25T12:18:25.151Z,17.54
2018-09-25T12:21:37.484Z,17.25
2018-09-25T12:24:48.386Z,16.67
2018-09-25T12:27:59.157Z,16.85
2018-09-25T12:31:10.316Z,17.02
2018-09-25T12:34:21.132Z,17.07
2018-09-25T12:37:32.821Z,16.83
2018-09-25T12:59:05.859Z,17.46
2018-09-25T13:02:18.733Z,17.49
2018-09-25T13:05:32.124Z,17.52
2018-09-25T13:08:43.939Z,17.59
2018-09-25T13:11:56.926Z,17.47
2018-09-25T13:15:08.815Z,17.56
2018-09-25T13:18:21.527Z,17.33
2018-09-25T13:21:32.522Z,17.31
2018-09-25T13:24:44.206Z,17.34
2018-09-25T13:27:57.384Z,17.57
2018-09-25T13:31:08.280Z,17.80
2018-09-25T13:34:19.116Z,17.81
2018-09-25T13:37:31.594Z,17.80
2018-09-25T13:40:43.635Z,17.97
2018-09-25T13:43:55.509Z,17.90
2018-09-25T13:47:06.633Z,17.61
2018-09-25T13:50:18.501Z,17.58
2018-09-25T13:53:29.487Z,17.84
2018-09-25T13:56:40.366Z,18.05
2018-09-25T13:59:51.536Z,17.84
2018-09-25T14:03:03.524Z,17.77
2018-09-25T14:06:14.499Z,17.72
2018-09-25T14:09:25.427Z,17.68
2018-09-25T14:12:36.410Z,17.73
2018-09-25T14:15:47.372Z,17.62
2018-09-25T14:18:59.041Z,17.51
2018-09-25T14:22:11.412Z,17.43
2018-09-25T14:25:26.032Z,17.42
2018-09-25T14:28:38.777Z,17.62
2018-09-25T14:31:51.647Z,17.60
2018-09-25T14:35:03.728Z,17.33
2018-09-25T14:38:15.446Z,17.30
2018-09-25T14:41:27.969Z,17.00
2018-09-25T14:44:40.308Z,16.86
2018-09-25T14:47:51.500Z,16.71
2018-09-25T14:51:02.741Z,16.52
2018-09-25T14:54:14.986Z,16.44
2018-09-25T14:57:28.049Z,16.53
2018-09-25T15:00:39.936Z,16.60
2018-09-25T15:03:52.871Z,16.62
2018-09-25T15:07:07.447Z,16.43
2018-09-25T15:10:25.797Z,16.30
2018-09-25T15:13:43.355Z,16.32
2018-09-25T15:16:57.281Z,16.34
2018-09-25T15:20:08.229Z,16.36
2018-09-25T15:23:20.075Z,16.44
2018-09-25T15:26:31.492Z,16.26
2018-09-25T15:29:44.110Z,16.04
2018-09-25T15:32:57.087Z,15.82
2018-09-25T15:36:08.996Z,15.75
2018-09-25T15:39:20.832Z,15.60
2018-09-25T15:42:32.629Z,15.45
2018-09-25T15:45:43.447Z,15.40
2018-09-25T15:48:56.360Z,15.26
2018-09-25T15:52:08.038Z,15.25
2018-09-25T15:55:20.210Z,15.15
2018-09-25T15:58:31.052Z,15.07
2018-09-25T16:01:42.909Z,15.06
2018-09-25T16:04:54.789Z,15.06
2018-09-25T16:08:06.813Z,14.99
2018-09-25T16:11:19.487Z,14.96
2018-09-25T16:14:31.224Z,14.84
2018-09-25T16:21:12.699Z,14.86
2018-09-25T16:24:23.313Z,14.70
2018-09-25T16:27:35.942Z,14.69
2018-09-25T16:30:46.602Z,14.73
2018-09-25T16:33:59.894Z,14.72
2018-09-25T16:37:11.727Z,14.50
2018-09-25T16:40:25.410Z,14.44
2018-09-25T16:43:40.006Z,14.35
2018-09-25T16:46:56.253Z,14.24
2018-09-25T16:50:08.589Z,14.09
2018-09-25T16:53:20.910Z,13.90
2018-09-25T16:56:33.394Z,13.70
2018-09-25T16:59:47.850Z,13.58
2018-09-25T17:03:00.642Z,13.37
2018-09-25T17:06:13.938Z,13.08
2018-09-25T17:09:28.010Z,13.01
2018-09-25T17:12:42.838Z,12.82
2018-09-25T17:15:55.116Z,12.63
2018-09-25T17:19:06.065Z,12.45
2018-09-25T17:22:19.089Z,12.30
2018-09-25T17:25:31.034Z,12.06
2018-09-25T17:28:42.347Z,11.84
2018-09-25T17:31:55.146Z,11.72
2018-09-25T17:35:08.529Z,11.59
2018-09-25T17:38:19.403Z,11.45
2018-09-25T17:41:33.739Z,11.23
2018-09-25T17:44:46.088Z,10.97
2018-09-25T17:47:57.273Z,10.87
2018-09-25T17:51:09.218Z,10.79
2018-09-25T17:54:20.931Z,10.63
2018-09-25T17:57:31.839Z,10.38
2018-09-25T18:00:43.221Z,10.27
2018-09-25T18:03:54.772Z,10.16
2018-09-25T18:07:05.409Z,10.10
2018-09-25T18:10:16.559Z,10.00
2018-09-25T18:13:28.212Z,9.95
2018-09-25T18:16:38.991Z,9.83
2018-09-25T18:19:52.782Z,9.72
2018-09-25T18:23:04.519Z,9.61
2018-09-25T18:26:15.202Z,9.40
2018-09-25T18:29:27.909Z,9.24
2018-09-25T18:32:39.699Z,9.04
2018-09-25T18:35:51.168Z,9.04
2018-09-25T18:39:02.689Z,9.02
2018-09-25T18:42:14.491Z,8.92
2018-09-25T18:45:25.164Z,8.87
2018-09-25T18:48:35.798Z,8.79
2018-09-25T18:51:47.478Z,8.76
2018-09-25T18:54:59.305Z,8.70
2018-09-25T18:58:11.143Z,8.57
2018-09-25T19:01:23.004Z,8.51
2018-09-25T19:04:35.429Z,8.45
2018-09-25T19:07:47.907Z,8.34
2018-09-25T19:10:59.377Z,8.22
2018-09-25T19:14:11.596Z,8.11
2018-09-25T19:17:23.483Z,8.01
2018-09-25T19:20:34.237Z,7.99
2018-09-25T19:23:46.992Z,7.93
2018-09-25T19:26:59.111Z,7.86
2018-09-25T19:30:11.154Z,7.76
2018-09-25T19:33:21.972Z,7.76
2018-09-25T19:36:33.649Z,7.66
2018-09-25T19:39:46.513Z,7.64
2018-09-25T19:43:00.130Z,7.56
2018-09-25T19:46:12.049Z,7.41
2018-09-25T19:49:23.959Z,7.31
2018-09-25T19:52:36.552Z,7.26
2018-09-25T19:55:48.284Z,7.27
2018-09-25T19:59:00.052Z,7.22
2018-09-25T20:02:11.953Z,7.16
2018-09-25T20:05:23.727Z,7.05
2018-09-25T20:08:35.463Z,7.04
2018-09-25T20:11:48.242Z,6.93
2018-09-25T20:14:59.246Z,6.88
2018-09-25T20:18:10.123Z,6.84
2018-09-25T20:21:21.556Z,6.83
2018-09-25T20:24:32.984Z,6.78
2018-09-25T20:27:44.816Z,6.72
2018-09-25T20:30:56.506Z,6.68
2018-09-25T20:34:07.203Z,6.65
2018-09-25T20:37:20.517Z,6.58
2018-09-25T20:40:32.232Z,6.49
2018-09-25T20:43:43.010Z,6.42
2018-09-25T20:46:53.645Z,6.41
2018-09-25T20:50:05.308Z,6.36
2018-09-25T20:53:17.237Z,6.31
2018-09-25T20:56:28.679Z,6.18
2018-09-25T20:59:40.436Z,6.21
2018-09-25T21:02:52.251Z,6.18
2018-09-25T21:06:03.051Z,6.11
2018-09-25T21:09:14.332Z,6.10
2018-09-25T21:15:02.709Z,5.88
2018-09-25T21:18:15.115Z,5.85
2018-09-25T21:21:26.731Z,5.81
2018-09-25T21:24:38.291Z,5.83
2018-09-25T21:27:50.709Z,5.82
2018-09-25T21:31:02.202Z,5.79
2018-09-25T21:34:12.943Z,5.73
2018-09-25T21:37:24.997Z,5.59
2018-09-25T21:40:35.586Z,5.56
2018-09-25T21:43:46.961Z,5.55
2018-09-25T21:46:57.642Z,5.55
2018-09-25T21:50:09.213Z,5.58
2018-09-25T21:53:22.166Z,5.56
2018-09-25T21:56:32.933Z,5.49
2018-09-25T22:02:47.966Z,5.42
2018-09-25T22:05:58.687Z,5.43
2018-09-25T22:09:11.792Z,5.39
2018-09-25T22:12:23.270Z,5.37
2018-09-25T22:15:34.242Z,5.25
2018-09-25T22:18:45.719Z,5.22
2018-09-25T22:21:57.301Z,5.19
2018-09-25T22:25:09.561Z,5.16
2018-09-25T22:28:22.159Z,5.14
2018-09-25T22:31:34.020Z,5.09
2018-09-25T22:34:45.899Z,5.04
2018-09-25T22:37:56.624Z,5.04
2018-09-25T22:41:08.461Z,4.88
2018-09-25T22:44:19.184Z,4.81
2018-09-25T22:47:29.876Z,4.83
2018-09-25T22:50:42.617Z,4.84
2018-09-25T22:53:55.587Z,4.82
2018-09-25T22:57:06.517Z,4.82
2018-09-25T23:00:18.090Z,4.85
2018-09-25T23:03:29.899Z,4.85
2018-09-25T23:06:41.683Z,4.81
2018-09-25T23:09:53.691Z,4.72
2018-09-25T23:13:04.453Z,4.70
2018-09-25T23:16:15.070Z,4.68
2018-09-25T23:19:26.778Z,4.65
2018-09-25T23:22:38.630Z,4.60
2018-09-25T23:25:51.062Z,4.56
2018-09-25T23:29:02.404Z,4.53
2018-09-25T23:32:15.267Z,4.48
2018-09-25T23:35:27.138Z,4.43
2018-09-25T23:38:37.795Z,4.39
2018-09-25T23:41:49.322Z,4.39
2018-09-25T23:45:59.148Z,4.35
2018-09-25T23:49:12.087Z,4.25
2018-09-25T23:52:25.610Z,4.22
2018-09-25T23:56:40.942Z,4.22
2018-09-25T23:59:56.658Z,4.09
